Aviation Digital Data Service (ADDS)

Output produced by METARs form (0413 UTC 25 October 2014)
found at http://aviationweather.gov/adds/metars/
 
KLAS 250246Z 2503/2524 21009KT P6SM SKC 
     FM252100 21015G24KT P6SM SCT250